sensor_id;sensor_type;location;lat;lon;timestamp;P1;durP1;ratioP1;P2;durP2;ratioP2
11086;SDS011;5597;47.588;9.642;2022-11-09T00:01:18;3.23;;;2.93;;
11086;SDS011;5597;47.588;9.642;2022-11-09T00:03:44;4.23;;;3.33;;
11086;SDS011;5597;47.588;9.642;2022-11-09T00:06:11;3.40;;;3.10;;
11086;SDS011;5597;47.588;9.642;2022-11-09T00:08:37;3.30;;;3.00;;
11086;SDS011;5597;47.588;9.642;2022-11-09T00:11:03;3.83;;;2.57;;
11086;SDS011;5597;47.588;9.642;2022-11-09T00:13:30;3.60;;;2.20;;
11086;SDS011;5597;47.588;9.642;2022-11-09T00:15:59;2.53;;;1.70;;
11086;SDS011;5597;47.588;9.642;2022-11-09T00:18:26;1.40;;;1.30;;
11086;SDS011;5597;47.588;9.642;2022-11-09T00:20:52;2.53;;;1.60;;
11086;SDS011;5597;47.588;9.642;2022-11-09T00:23:18;2.10;;;1.53;;
11086;SDS011;5597;47.588;9.642;2022-11-09T00:25:43;1.40;;;1.30;;
11086;SDS011;5597;47.588;9.642;2022-11-09T00:28:09;2.13;;;1.13;;
11086;SDS011;5597;47.588;9.642;2022-11-09T00:30:35;2.70;;;1.40;;
11086;SDS011;5597;47.588;9.642;2022-11-09T00:33:00;1.50;;;1.20;;
11086;SDS011;5597;47.588;9.642;2022-11-09T00:35:26;1.50;;;1.20;;
11086;SDS011;5597;47.588;9.642;2022-11-09T00:37:51;1.30;;;1.10;;
11086;SDS011;5597;47.588;9.642;2022-11-09T00:40:18;2.37;;;1.30;;
11086;SDS011;5597;47.588;9.642;2022-11-09T00:42:44;1.33;;;1.10;;
11086;SDS011;5597;47.588;9.642;2022-11-09T00:45:09;1.57;;;1.23;;
11086;SDS011;5597;47.588;9.642;2022-11-09T00:47:35;1.33;;;1.10;;
11086;SDS011;5597;47.588;9.642;2022-11-09T00:50:01;1.77;;;1.30;;
11086;SDS011;5597;47.588;9.642;2022-11-09T00:52:26;1.47;;;1.10;;
11086;SDS011;5597;47.588;9.642;2022-11-09T00:54:52;2.20;;;1.30;;
11086;SDS011;5597;47.588;9.642;2022-11-09T00:57:18;1.03;;;0.90;;
11086;SDS011;5597;47.588;9.642;2022-11-09T00:59:43;1.40;;;1.30;;
11086;SDS011;5597;47.588;9.642;2022-11-09T01:02:09;1.47;;;1.20;;
11086;SDS011;5597;47.588;9.642;2022-11-09T01:04:35;1.97;;;1.40;;
11086;SDS011;5597;47.588;9.642;2022-11-09T01:07:00;1.37;;;1.27;;
11086;SDS011;5597;47.588;9.642;2022-11-09T01:09:26;1.27;;;1.17;;
11086;SDS011;5597;47.588;9.642;2022-11-09T01:11:52;1.90;;;1.40;;
11086;SDS011;5597;47.588;9.642;2022-11-09T01:14:18;1.60;;;1.30;;
11086;SDS011;5597;47.588;9.642;2022-11-09T01:16:43;1.33;;;1.20;;
11086;SDS011;5597;47.588;9.642;2022-11-09T01:19:10;2.13;;;1.50;;
11086;SDS011;5597;47.588;9.642;2022-11-09T01:21:36;1.47;;;1.30;;
11086;SDS011;5597;47.588;9.642;2022-11-09T01:24:01;1.30;;;1.20;;
11086;SDS011;5597;47.588;9.642;2022-11-09T01:26:27;1.43;;;1.30;;
11086;SDS011;5597;47.588;9.642;2022-11-09T01:28:53;1.50;;;1.30;;
11086;SDS011;5597;47.588;9.642;2022-11-09T01:31:19;1.40;;;1.30;;
11086;SDS011;5597;47.588;9.642;2022-11-09T01:33:46;1.07;;;0.97;;
11086;SDS011;5597;47.588;9.642;2022-11-09T01:36:12;2.43;;;1.30;;
11086;SDS011;5597;47.588;9.642;2022-11-09T01:38:40;1.30;;;1.20;;
11086;SDS011;5597;47.588;9.642;2022-11-09T01:41:06;1.37;;;1.20;;
11086;SDS011;5597;47.588;9.642;2022-11-09T01:43:33;1.30;;;1.20;;
11086;SDS011;5597;47.588;9.642;2022-11-09T01:46:11;1.23;;;0.97;;
11086;SDS011;5597;47.588;9.642;2022-11-09T01:51:13;1.80;;;1.00;;
11086;SDS011;5597;47.588;9.642;2022-11-09T01:53:46;1.60;;;1.30;;
11086;SDS011;5597;47.588;9.642;2022-11-09T01:56:15;1.40;;;1.30;;
11086;SDS011;5597;47.588;9.642;2022-11-09T01:59:03;1.50;;;1.20;;
11086;SDS011;5597;47.588;9.642;2022-11-09T02:01:31;1.67;;;1.30;;
11086;SDS011;5597;47.588;9.642;2022-11-09T02:04:07;1.43;;;1.20;;
11086;SDS011;5597;47.588;9.642;2022-11-09T02:06:44;0.80;;;0.80;;
11086;SDS011;5597;47.588;9.642;2022-11-09T02:09:19;1.50;;;1.30;;
11086;SDS011;5597;47.588;9.642;2022-11-09T02:11:50;1.70;;;1.40;;
11086;SDS011;5597;47.588;9.642;2022-11-09T02:14:16;1.23;;;1.10;;
11086;SDS011;5597;47.588;9.642;2022-11-09T02:16:43;1.70;;;1.50;;
11086;SDS011;5597;47.588;9.642;2022-11-09T02:19:11;1.70;;;1.60;;
11086;SDS011;5597;47.588;9.642;2022-11-09T02:21:36;1.90;;;1.70;;
11086;SDS011;5597;47.588;9.642;2022-11-09T02:24:02;2.43;;;1.87;;
11086;SDS011;5597;47.588;9.642;2022-11-09T02:29:12;1.83;;;1.60;;
11086;SDS011;5597;47.588;9.642;2022-11-09T02:31:42;2.37;;;1.80;;
11086;SDS011;5597;47.588;9.642;2022-11-09T02:34:13;2.30;;;2.10;;
11086;SDS011;5597;47.588;9.642;2022-11-09T02:36:41;2.20;;;2.00;;
11086;SDS011;5597;47.588;9.642;2022-11-09T02:39:10;2.33;;;2.00;;
11086;SDS011;5597;47.588;9.642;2022-11-09T02:41:41;1.97;;;1.67;;
11086;SDS011;5597;47.588;9.642;2022-11-09T02:44:14;1.90;;;1.40;;
11086;SDS011;5597;47.588;9.642;2022-11-09T02:46:40;2.40;;;1.43;;
11086;SDS011;5597;47.588;9.642;2022-11-09T02:49:06;1.67;;;1.30;;
11086;SDS011;5597;47.588;9.642;2022-11-09T02:51:31;1.53;;;1.30;;
11086;SDS011;5597;47.588;9.642;2022-11-09T02:53:57;1.40;;;1.27;;
11086;SDS011;5597;47.588;9.642;2022-11-09T02:56:23;1.30;;;1.20;;
11086;SDS011;5597;47.588;9.642;2022-11-09T02:58:48;1.50;;;1.30;;
11086;SDS011;5597;47.588;9.642;2022-11-09T03:01:14;1.97;;;1.47;;
11086;SDS011;5597;47.588;9.642;2022-11-09T03:03:39;2.10;;;1.63;;
11086;SDS011;5597;47.588;9.642;2022-11-09T03:06:05;1.77;;;1.60;;
11086;SDS011;5597;47.588;9.642;2022-11-09T03:08:31;2.57;;;1.53;;
11086;SDS011;5597;47.588;9.642;2022-11-09T03:10:58;1.90;;;1.50;;
11086;SDS011;5597;47.588;9.642;2022-11-09T03:13:24;1.77;;;1.60;;
11086;SDS011;5597;47.588;9.642;2022-11-09T03:15:49;1.77;;;1.50;;
11086;SDS011;5597;47.588;9.642;2022-11-09T03:18:15;2.07;;;1.40;;
11086;SDS011;5597;47.588;9.642;2022-11-09T03:20:40;2.30;;;1.33;;
11086;SDS011;5597;47.588;9.642;2022-11-09T03:23:06;1.50;;;1.37;;
11086;SDS011;5597;47.588;9.642;2022-11-09T03:25:31;1.93;;;1.70;;
11086;SDS011;5597;47.588;9.642;2022-11-09T03:28:01;1.67;;;1.40;;
11086;SDS011;5597;47.588;9.642;2022-11-09T03:30:29;2.60;;;1.77;;
11086;SDS011;5597;47.588;9.642;2022-11-09T03:32:59;2.13;;;1.80;;
11086;SDS011;5597;47.588;9.642;2022-11-09T03:35:26;2.30;;;1.63;;
11086;SDS011;5597;47.588;9.642;2022-11-09T03:37:52;1.97;;;1.80;;
11086;SDS011;5597;47.588;9.642;2022-11-09T03:40:18;3.00;;;2.20;;
11086;SDS011;5597;47.588;9.642;2022-11-09T03:42:44;3.63;;;2.23;;
11086;SDS011;5597;47.588;9.642;2022-11-09T03:45:14;2.53;;;2.00;;
11086;SDS011;5597;47.588;9.642;2022-11-09T03:47:41;2.17;;;1.97;;
11086;SDS011;5597;47.588;9.642;2022-11-09T03:50:08;2.10;;;1.90;;
11086;SDS011;5597;47.588;9.642;2022-11-09T03:52:34;2.33;;;1.87;;
11086;SDS011;5597;47.588;9.642;2022-11-09T03:55:00;2.67;;;2.43;;
11086;SDS011;5597;47.588;9.642;2022-11-09T03:57:26;3.30;;;2.73;;
11086;SDS011;5597;47.588;9.642;2022-11-09T03:59:52;3.37;;;2.80;;
11086;SDS011;5597;47.588;9.642;2022-11-09T04:02:17;2.57;;;2.20;;
11086;SDS011;5597;47.588;9.642;2022-11-09T04:04:43;2.60;;;2.30;;
11086;SDS011;5597;47.588;9.642;2022-11-09T04:07:09;2.73;;;2.50;;
11086;SDS011;5597;47.588;9.642;2022-11-09T04:09:35;2.70;;;2.30;;
11086;SDS011;5597;47.588;9.642;2022-11-09T04:12:00;3.70;;;2.30;;
11086;SDS011;5597;47.588;9.642;2022-11-09T04:14:26;2.20;;;2.00;;
11086;SDS011;5597;47.588;9.642;2022-11-09T04:16:52;3.53;;;2.73;;
11086;SDS011;5597;47.588;9.642;2022-11-09T04:19:17;4.03;;;2.70;;
11086;SDS011;5597;47.588;9.642;2022-11-09T04:21:43;3.10;;;2.80;;
11086;SDS011;5597;47.588;9.642;2022-11-09T04:24:08;2.50;;;2.30;;
11086;SDS011;5597;47.588;9.642;2022-11-09T04:26:34;3.00;;;2.33;;
11086;SDS011;5597;47.588;9.642;2022-11-09T04:29:00;3.63;;;2.30;;
11086;SDS011;5597;47.588;9.642;2022-11-09T04:31:25;2.43;;;2.20;;
11086;SDS011;5597;47.588;9.642;2022-11-09T04:33:51;3.13;;;2.43;;
11086;SDS011;5597;47.588;9.642;2022-11-09T04:36:17;2.73;;;2.10;;
11086;SDS011;5597;47.588;9.642;2022-11-09T04:38:42;3.20;;;2.90;;
11086;SDS011;5597;47.588;9.642;2022-11-09T04:41:08;3.63;;;2.67;;
11086;SDS011;5597;47.588;9.642;2022-11-09T04:43:34;3.20;;;2.60;;
11086;SDS011;5597;47.588;9.642;2022-11-09T04:46:00;3.80;;;2.73;;
11086;SDS011;5597;47.588;9.642;2022-11-09T04:48:26;2.90;;;2.67;;
11086;SDS011;5597;47.588;9.642;2022-11-09T04:50:57;3.57;;;2.50;;
11086;SDS011;5597;47.588;9.642;2022-11-09T04:53:24;2.80;;;2.50;;
11086;SDS011;5597;47.588;9.642;2022-11-09T04:55:50;4.10;;;2.40;;
11086;SDS011;5597;47.588;9.642;2022-11-09T04:58:17;3.33;;;2.57;;
11086;SDS011;5597;47.588;9.642;2022-11-09T05:00:42;2.40;;;2.20;;
11086;SDS011;5597;47.588;9.642;2022-11-09T05:03:08;2.87;;;2.57;;
11086;SDS011;5597;47.588;9.642;2022-11-09T05:05:34;2.83;;;2.57;;
11086;SDS011;5597;47.588;9.642;2022-11-09T05:08:01;3.47;;;2.90;;
11086;SDS011;5597;47.588;9.642;2022-11-09T05:10:27;3.73;;;3.37;;
11086;SDS011;5597;47.588;9.642;2022-11-09T05:12:56;4.40;;;4.00;;
11086;SDS011;5597;47.588;9.642;2022-11-09T05:15:25;5.13;;;4.57;;
11086;SDS011;5597;47.588;9.642;2022-11-09T05:17:51;8.97;;;6.33;;
11086;SDS011;5597;47.588;9.642;2022-11-09T05:20:17;6.03;;;5.10;;
11086;SDS011;5597;47.588;9.642;2022-11-09T05:22:43;5.93;;;5.33;;
11086;SDS011;5597;47.588;9.642;2022-11-09T05:25:27;5.03;;;4.53;;
11086;SDS011;5597;47.588;9.642;2022-11-09T05:27:53;5.30;;;4.27;;
11086;SDS011;5597;47.588;9.642;2022-11-09T05:30:19;4.70;;;3.33;;
11086;SDS011;5597;47.588;9.642;2022-11-09T05:32:44;3.63;;;3.17;;
11086;SDS011;5597;47.588;9.642;2022-11-09T05:35:10;3.27;;;2.83;;
11086;SDS011;5597;47.588;9.642;2022-11-09T05:37:39;2.37;;;2.17;;
11086;SDS011;5597;47.588;9.642;2022-11-09T05:40:05;2.90;;;2.53;;
11086;SDS011;5597;47.588;9.642;2022-11-09T05:42:33;3.73;;;3.37;;
11086;SDS011;5597;47.588;9.642;2022-11-09T05:44:59;4.63;;;4.00;;
11086;SDS011;5597;47.588;9.642;2022-11-09T05:47:25;4.20;;;3.80;;
11086;SDS011;5597;47.588;9.642;2022-11-09T05:49:50;4.47;;;4.07;;
11086;SDS011;5597;47.588;9.642;2022-11-09T05:52:16;5.43;;;4.87;;
11086;SDS011;5597;47.588;9.642;2022-11-09T05:54:41;6.93;;;5.67;;
11086;SDS011;5597;47.588;9.642;2022-11-09T05:57:07;6.10;;;5.33;;
11086;SDS011;5597;47.588;9.642;2022-11-09T05:59:32;7.30;;;5.70;;
11086;SDS011;5597;47.588;9.642;2022-11-09T06:01:58;6.47;;;5.73;;
11086;SDS011;5597;47.588;9.642;2022-11-09T06:04:23;5.30;;;4.80;;
11086;SDS011;5597;47.588;9.642;2022-11-09T06:06:49;4.87;;;4.40;;
11086;SDS011;5597;47.588;9.642;2022-11-09T06:09:15;5.30;;;4.57;;
11086;SDS011;5597;47.588;9.642;2022-11-09T06:11:40;4.83;;;4.37;;
11086;SDS011;5597;47.588;9.642;2022-11-09T06:14:06;4.87;;;3.60;;
11086;SDS011;5597;47.588;9.642;2022-11-09T06:16:31;4.33;;;3.93;;
11086;SDS011;5597;47.588;9.642;2022-11-09T06:18:57;4.57;;;3.80;;
11086;SDS011;5597;47.588;9.642;2022-11-09T06:21:22;5.00;;;4.50;;
11086;SDS011;5597;47.588;9.642;2022-11-09T06:23:48;4.93;;;4.43;;
11086;SDS011;5597;47.588;9.642;2022-11-09T06:26:13;5.33;;;4.70;;
11086;SDS011;5597;47.588;9.642;2022-11-09T06:28:39;5.47;;;4.13;;
11086;SDS011;5597;47.588;9.642;2022-11-09T06:31:06;5.43;;;4.23;;
11086;SDS011;5597;47.588;9.642;2022-11-09T06:33:34;5.00;;;4.50;;
11086;SDS011;5597;47.588;9.642;2022-11-09T06:36:00;5.17;;;4.10;;
11086;SDS011;5597;47.588;9.642;2022-11-09T06:38:27;4.43;;;4.00;;
11086;SDS011;5597;47.588;9.642;2022-11-09T06:40:54;4.83;;;4.33;;
11086;SDS011;5597;47.588;9.642;2022-11-09T06:43:22;5.43;;;4.37;;
11086;SDS011;5597;47.588;9.642;2022-11-09T06:45:48;4.90;;;4.40;;
11086;SDS011;5597;47.588;9.642;2022-11-09T06:48:14;4.80;;;4.33;;
11086;SDS011;5597;47.588;9.642;2022-11-09T06:50:40;5.47;;;4.93;;
11086;SDS011;5597;47.588;9.642;2022-11-09T06:53:08;5.83;;;5.30;;
11086;SDS011;5597;47.588;9.642;2022-11-09T06:55:35;5.00;;;4.50;;
11086;SDS011;5597;47.588;9.642;2022-11-09T06:58:05;4.80;;;4.33;;
11086;SDS011;5597;47.588;9.642;2022-11-09T07:00:35;4.97;;;4.47;;
11086;SDS011;5597;47.588;9.642;2022-11-09T07:03:01;4.87;;;4.13;;
11086;SDS011;5597;47.588;9.642;2022-11-09T07:05:27;4.83;;;4.33;;
11086;SDS011;5597;47.588;9.642;2022-11-09T07:07:53;6.17;;;5.30;;
11086;SDS011;5597;47.588;9.642;2022-11-09T07:10:18;4.90;;;4.40;;
11086;SDS011;5597;47.588;9.642;2022-11-09T07:12:44;5.57;;;4.43;;
11086;SDS011;5597;47.588;9.642;2022-11-09T07:15:10;8.00;;;4.80;;
11086;SDS011;5597;47.588;9.642;2022-11-09T07:17:36;5.60;;;5.10;;
11086;SDS011;5597;47.588;9.642;2022-11-09T07:20:04;5.97;;;5.43;;
11086;SDS011;5597;47.588;9.642;2022-11-09T07:22:31;5.97;;;5.37;;
11086;SDS011;5597;47.588;9.642;2022-11-09T07:24:58;6.20;;;5.47;;
11086;SDS011;5597;47.588;9.642;2022-11-09T07:27:24;6.20;;;5.27;;
11086;SDS011;5597;47.588;9.642;2022-11-09T07:29:50;6.73;;;5.97;;
11086;SDS011;5597;47.588;9.642;2022-11-09T07:32:15;6.67;;;5.93;;
11086;SDS011;5597;47.588;9.642;2022-11-09T07:34:41;7.30;;;6.60;;
11086;SDS011;5597;47.588;9.642;2022-11-09T07:37:06;8.13;;;6.80;;
11086;SDS011;5597;47.588;9.642;2022-11-09T07:39:32;7.37;;;5.90;;
11086;SDS011;5597;47.588;9.642;2022-11-09T07:41:58;7.57;;;6.77;;
11086;SDS011;5597;47.588;9.642;2022-11-09T07:44:23;6.10;;;5.47;;
11086;SDS011;5597;47.588;9.642;2022-11-09T07:46:49;6.60;;;6.00;;
11086;SDS011;5597;47.588;9.642;2022-11-09T07:49:15;5.87;;;5.27;;
11086;SDS011;5597;47.588;9.642;2022-11-09T07:51:41;6.43;;;5.40;;
11086;SDS011;5597;47.588;9.642;2022-11-09T07:54:10;6.07;;;5.47;;
11086;SDS011;5597;47.588;9.642;2022-11-09T07:56:36;6.17;;;5.57;;
11086;SDS011;5597;47.588;9.642;2022-11-09T07:59:02;6.97;;;5.87;;
11086;SDS011;5597;47.588;9.642;2022-11-09T08:01:28;6.27;;;5.67;;
11086;SDS011;5597;47.588;9.642;2022-11-09T08:03:54;6.53;;;5.93;;
11086;SDS011;5597;47.588;9.642;2022-11-09T08:06:19;7.83;;;5.77;;
11086;SDS011;5597;47.588;9.642;2022-11-09T08:08:46;8.00;;;5.70;;
11086;SDS011;5597;47.588;9.642;2022-11-09T08:11:13;6.50;;;5.63;;
11086;SDS011;5597;47.588;9.642;2022-11-09T08:13:39;7.27;;;6.37;;
11086;SDS011;5597;47.588;9.642;2022-11-09T08:16:05;5.73;;;5.23;;
11086;SDS011;5597;47.588;9.642;2022-11-09T08:18:30;5.83;;;5.17;;
11086;SDS011;5597;47.588;9.642;2022-11-09T08:20:56;6.47;;;5.80;;
11086;SDS011;5597;47.588;9.642;2022-11-09T08:23:24;5.70;;;5.20;;
11086;SDS011;5597;47.588;9.642;2022-11-09T08:25:50;5.70;;;5.13;;
11086;SDS011;5597;47.588;9.642;2022-11-09T08:28:16;6.27;;;5.67;;
11086;SDS011;5597;47.588;9.642;2022-11-09T08:30:42;6.07;;;5.40;;
11086;SDS011;5597;47.588;9.642;2022-11-09T08:33:08;6.20;;;5.60;;
11086;SDS011;5597;47.588;9.642;2022-11-09T08:35:34;7.03;;;5.70;;
11086;SDS011;5597;47.588;9.642;2022-11-09T08:38:01;6.10;;;5.50;;
11086;SDS011;5597;47.588;9.642;2022-11-09T08:40:28;6.17;;;5.57;;
11086;SDS011;5597;47.588;9.642;2022-11-09T08:42:54;5.97;;;5.40;;
11086;SDS011;5597;47.588;9.642;2022-11-09T08:45:20;6.73;;;6.10;;
11086;SDS011;5597;47.588;9.642;2022-11-09T08:47:45;8.00;;;6.10;;
11086;SDS011;5597;47.588;9.642;2022-11-09T08:50:12;6.10;;;5.47;;
11086;SDS011;5597;47.588;9.642;2022-11-09T08:52:38;5.83;;;5.30;;
11086;SDS011;5597;47.588;9.642;2022-11-09T08:55:04;5.27;;;4.77;;
11086;SDS011;5597;47.588;9.642;2022-11-09T08:57:31;6.50;;;4.97;;
11086;SDS011;5597;47.588;9.642;2022-11-09T08:59:56;5.30;;;4.80;;
11086;SDS011;5597;47.588;9.642;2022-11-09T09:02:22;4.80;;;4.30;;
11086;SDS011;5597;47.588;9.642;2022-11-09T09:04:47;5.47;;;4.57;;
11086;SDS011;5597;47.588;9.642;2022-11-09T09:07:13;4.83;;;4.37;;
11086;SDS011;5597;47.588;9.642;2022-11-09T09:09:39;6.17;;;4.40;;
11086;SDS011;5597;47.588;9.642;2022-11-09T09:12:05;4.77;;;4.37;;
11086;SDS011;5597;47.588;9.642;2022-11-09T09:14:32;5.73;;;4.20;;
11086;SDS011;5597;47.588;9.642;2022-11-09T09:16:58;5.07;;;3.87;;
11086;SDS011;5597;47.588;9.642;2022-11-09T09:19:24;4.27;;;3.87;;
11086;SDS011;5597;47.588;9.642;2022-11-09T09:21:50;3.97;;;3.63;;
11086;SDS011;5597;47.588;9.642;2022-11-09T09:24:16;4.40;;;3.90;;
11086;SDS011;5597;47.588;9.642;2022-11-09T09:26:42;4.63;;;3.80;;
11086;SDS011;5597;47.588;9.642;2022-11-09T09:29:09;4.27;;;3.87;;
11086;SDS011;5597;47.588;9.642;2022-11-09T09:31:35;4.13;;;3.60;;
11086;SDS011;5597;47.588;9.642;2022-11-09T09:34:01;4.93;;;3.73;;
11086;SDS011;5597;47.588;9.642;2022-11-09T09:36:27;4.10;;;3.70;;
11086;SDS011;5597;47.588;9.642;2022-11-09T09:38:53;5.07;;;3.77;;
11086;SDS011;5597;47.588;9.642;2022-11-09T09:41:34;3.40;;;3.10;;
11086;SDS011;5597;47.588;9.642;2022-11-09T09:44:01;5.67;;;3.43;;
11086;SDS011;5597;47.588;9.642;2022-11-09T09:47:08;4.03;;;2.90;;
11086;SDS011;5597;47.588;9.642;2022-11-09T09:52:22;3.20;;;2.80;;
11086;SDS011;5597;47.588;9.642;2022-11-09T09:54:57;3.23;;;2.93;;
11086;SDS011;5597;47.588;9.642;2022-11-09T09:57:24;4.70;;;3.00;;
11086;SDS011;5597;47.588;9.642;2022-11-09T09:59:53;4.23;;;3.03;;
11086;SDS011;5597;47.588;9.642;2022-11-09T10:02:29;3.13;;;2.73;;
11086;SDS011;5597;47.588;9.642;2022-11-09T10:04:59;3.33;;;2.70;;
11086;SDS011;5597;47.588;9.642;2022-11-09T10:07:32;4.03;;;3.17;;
11086;SDS011;5597;47.588;9.642;2022-11-09T10:17:47;5.43;;;3.97;;
11086;SDS011;5597;47.588;9.642;2022-11-09T10:20:21;4.03;;;3.63;;
11086;SDS011;5597;47.588;9.642;2022-11-09T10:25:27;4.00;;;3.60;;
11086;SDS011;5597;47.588;9.642;2022-11-09T10:27:57;4.57;;;3.53;;
11086;SDS011;5597;47.588;9.642;2022-11-09T10:30:26;3.97;;;3.57;;
11086;SDS011;5597;47.588;9.642;2022-11-09T10:32:54;6.30;;;4.40;;
11086;SDS011;5597;47.588;9.642;2022-11-09T10:35:37;5.60;;;4.53;;
11086;SDS011;5597;47.588;9.642;2022-11-09T10:38:11;7.23;;;6.50;;
11086;SDS011;5597;47.588;9.642;2022-11-09T10:41:00;9.17;;;8.17;;
11086;SDS011;5597;47.588;9.642;2022-11-09T10:43:35;7.07;;;6.37;;
11086;SDS011;5597;47.588;9.642;2022-11-09T10:46:02;5.87;;;5.30;;
11086;SDS011;5597;47.588;9.642;2022-11-09T10:48:31;5.00;;;4.50;;
11086;SDS011;5597;47.588;9.642;2022-11-09T10:50:59;5.27;;;4.60;;
11086;SDS011;5597;47.588;9.642;2022-11-09T10:53:26;4.50;;;3.90;;
11086;SDS011;5597;47.588;9.642;2022-11-09T11:00:58;3.50;;;3.20;;
11086;SDS011;5597;47.588;9.642;2022-11-09T11:03:34;4.83;;;3.73;;
11086;SDS011;5597;47.588;9.642;2022-11-09T11:08:33;4.37;;;3.97;;
11086;SDS011;5597;47.588;9.642;2022-11-09T11:11:27;4.50;;;3.80;;
11086;SDS011;5597;47.588;9.642;2022-11-09T11:14:09;4.03;;;3.63;;
11086;SDS011;5597;47.588;9.642;2022-11-09T11:16:37;4.93;;;3.63;;
11086;SDS011;5597;47.588;9.642;2022-11-09T11:19:04;4.07;;;3.60;;
11086;SDS011;5597;47.588;9.642;2022-11-09T11:21:30;3.90;;;3.60;;
11086;SDS011;5597;47.588;9.642;2022-11-09T11:24:15;4.20;;;3.80;;
11086;SDS011;5597;47.588;9.642;2022-11-09T11:26:46;5.07;;;4.50;;
11086;SDS011;5597;47.588;9.642;2022-11-09T11:32:10;4.83;;;4.33;;
11086;SDS011;5597;47.588;9.642;2022-11-09T11:34:40;4.30;;;3.90;;
11086;SDS011;5597;47.588;9.642;2022-11-09T11:42:10;4.43;;;3.77;;
11086;SDS011;5597;47.588;9.642;2022-11-09T11:47:54;3.97;;;3.53;;
11086;SDS011;5597;47.588;9.642;2022-11-09T11:56:44;3.67;;;3.37;;
11086;SDS011;5597;47.588;9.642;2022-11-09T12:10:20;4.43;;;3.77;;
11086;SDS011;5597;47.588;9.642;2022-11-09T12:13:05;5.23;;;3.67;;
11086;SDS011;5597;47.588;9.642;2022-11-09T12:26:43;5.87;;;4.40;;
11086;SDS011;5597;47.588;9.642;2022-11-09T12:29:19;6.50;;;4.33;;
11086;SDS011;5597;47.588;9.642;2022-11-09T12:34:31;3.87;;;3.40;;
11086;SDS011;5597;47.588;9.642;2022-11-09T12:39:28;4.93;;;3.43;;
11086;SDS011;5597;47.588;9.642;2022-11-09T12:42:27;4.00;;;3.20;;
11086;SDS011;5597;47.588;9.642;2022-11-09T12:47:41;3.10;;;2.80;;
11086;SDS011;5597;47.588;9.642;2022-11-09T12:50:12;4.60;;;3.30;;
11086;SDS011;5597;47.588;9.642;2022-11-09T12:52:41;3.97;;;3.13;;
11086;SDS011;5597;47.588;9.642;2022-11-09T12:55:11;3.83;;;3.13;;
11086;SDS011;5597;47.588;9.642;2022-11-09T12:57:39;3.63;;;2.93;;
11086;SDS011;5597;47.588;9.642;2022-11-09T13:00:43;4.00;;;3.33;;
11086;SDS011;5597;47.588;9.642;2022-11-09T13:02:58;4.13;;;3.03;;
11086;SDS011;5597;47.588;9.642;2022-11-09T13:07:55;3.00;;;2.67;;
11086;SDS011;5597;47.588;9.642;2022-11-09T13:10:31;4.13;;;3.33;;
11086;SDS011;5597;47.588;9.642;2022-11-09T13:15:36;3.13;;;2.80;;
11086;SDS011;5597;47.588;9.642;2022-11-09T13:18:04;2.80;;;2.60;;
11086;SDS011;5597;47.588;9.642;2022-11-09T13:20:50;3.50;;;2.50;;
11086;SDS011;5597;47.588;9.642;2022-11-09T13:23:32;3.20;;;2.57;;
11086;SDS011;5597;47.588;9.642;2022-11-09T13:26:00;3.23;;;2.73;;
11086;SDS011;5597;47.588;9.642;2022-11-09T13:30:52;4.80;;;3.20;;
11086;SDS011;5597;47.588;9.642;2022-11-09T13:33:22;5.00;;;3.30;;
11086;SDS011;5597;47.588;9.642;2022-11-09T13:38:15;4.90;;;3.07;;
11086;SDS011;5597;47.588;9.642;2022-11-09T13:45:49;3.10;;;2.80;;
11086;SDS011;5597;47.588;9.642;2022-11-09T13:48:32;3.70;;;3.10;;
11086;SDS011;5597;47.588;9.642;2022-11-09T13:51:08;3.87;;;3.37;;
11086;SDS011;5597;47.588;9.642;2022-11-09T13:56:12;4.13;;;3.73;;
11086;SDS011;5597;47.588;9.642;2022-11-09T13:58:47;4.07;;;3.60;;
11086;SDS011;5597;47.588;9.642;2022-11-09T14:03:50;4.27;;;3.80;;
11086;SDS011;5597;47.588;9.642;2022-11-09T14:06:15;6.97;;;4.70;;
11086;SDS011;5597;47.588;9.642;2022-11-09T14:08:42;5.03;;;4.17;;
11086;SDS011;5597;47.588;9.642;2022-11-09T14:16:27;4.37;;;3.97;;
11086;SDS011;5597;47.588;9.642;2022-11-09T14:21:58;4.70;;;4.30;;
11086;SDS011;5597;47.588;9.642;2022-11-09T14:24:28;4.67;;;3.97;;
11086;SDS011;5597;47.588;9.642;2022-11-09T14:29:35;4.97;;;4.50;;
11086;SDS011;5597;47.588;9.642;2022-11-09T14:32:15;5.03;;;4.37;;
11086;SDS011;5597;47.588;9.642;2022-11-09T14:34:50;4.10;;;3.70;;
11086;SDS011;5597;47.588;9.642;2022-11-09T14:37:16;5.63;;;4.73;;
11086;SDS011;5597;47.588;9.642;2022-11-09T14:39:46;4.77;;;4.33;;
11086;SDS011;5597;47.588;9.642;2022-11-09T14:42:16;5.77;;;5.27;;
11086;SDS011;5597;47.588;9.642;2022-11-09T14:44:45;5.50;;;4.93;;
11086;SDS011;5597;47.588;9.642;2022-11-09T14:47:18;5.00;;;4.50;;
11086;SDS011;5597;47.588;9.642;2022-11-09T14:49:53;4.87;;;4.37;;
11086;SDS011;5597;47.588;9.642;2022-11-09T14:52:21;4.53;;;4.13;;
11086;SDS011;5597;47.588;9.642;2022-11-09T14:54:51;5.23;;;4.30;;
11086;SDS011;5597;47.588;9.642;2022-11-09T14:57:18;4.53;;;4.10;;
11086;SDS011;5597;47.588;9.642;2022-11-09T14:59:45;4.87;;;4.37;;
11086;SDS011;5597;47.588;9.642;2022-11-09T15:02:13;4.40;;;3.90;;
11086;SDS011;5597;47.588;9.642;2022-11-09T15:04:53;4.57;;;3.83;;
11086;SDS011;5597;47.588;9.642;2022-11-09T15:07:20;6.13;;;4.20;;
11086;SDS011;5597;47.588;9.642;2022-11-09T15:09:50;4.83;;;4.07;;
11086;SDS011;5597;47.588;9.642;2022-11-09T15:12:20;5.00;;;4.50;;
11086;SDS011;5597;47.588;9.642;2022-11-09T15:14:52;6.00;;;5.10;;
11086;SDS011;5597;47.588;9.642;2022-11-09T15:17:32;5.00;;;4.43;;
11086;SDS011;5597;47.588;9.642;2022-11-09T15:20:02;4.60;;;4.20;;
11086;SDS011;5597;47.588;9.642;2022-11-09T15:22:40;4.43;;;3.90;;
11086;SDS011;5597;47.588;9.642;2022-11-09T15:38:33;5.23;;;4.43;;
11086;SDS011;5597;47.588;9.642;2022-11-09T15:41:10;6.77;;;4.43;;
11086;SDS011;5597;47.588;9.642;2022-11-09T15:43:41;4.93;;;4.37;;
11086;SDS011;5597;47.588;9.642;2022-11-09T15:46:09;4.87;;;4.30;;
11086;SDS011;5597;47.588;9.642;2022-11-09T15:48:46;5.03;;;4.53;;
11086;SDS011;5597;47.588;9.642;2022-11-09T15:51:12;5.20;;;4.70;;
11086;SDS011;5597;47.588;9.642;2022-11-09T15:53:39;5.37;;;4.83;;
11086;SDS011;5597;47.588;9.642;2022-11-09T15:56:04;5.40;;;4.90;;
11086;SDS011;5597;47.588;9.642;2022-11-09T15:58:30;5.50;;;5.00;;
11086;SDS011;5597;47.588;9.642;2022-11-09T16:00:56;5.50;;;4.70;;
11086;SDS011;5597;47.588;9.642;2022-11-09T16:03:21;4.93;;;4.37;;
11086;SDS011;5597;47.588;9.642;2022-11-09T16:05:47;5.00;;;4.50;;
11086;SDS011;5597;47.588;9.642;2022-11-09T16:08:12;4.93;;;4.20;;
11086;SDS011;5597;47.588;9.642;2022-11-09T16:10:39;4.50;;;4.10;;
11086;SDS011;5597;47.588;9.642;2022-11-09T16:13:05;5.30;;;4.80;;
11086;SDS011;5597;47.588;9.642;2022-11-09T16:15:32;5.60;;;5.00;;
11086;SDS011;5597;47.588;9.642;2022-11-09T16:17:59;7.10;;;4.77;;
11086;SDS011;5597;47.588;9.642;2022-11-09T16:20:25;5.30;;;4.50;;
11086;SDS011;5597;47.588;9.642;2022-11-09T16:22:50;4.40;;;4.00;;
11086;SDS011;5597;47.588;9.642;2022-11-09T16:25:16;4.40;;;4.00;;
11086;SDS011;5597;47.588;9.642;2022-11-09T16:27:42;4.43;;;4.03;;
11086;SDS011;5597;47.588;9.642;2022-11-09T16:30:08;6.27;;;4.60;;
11086;SDS011;5597;47.588;9.642;2022-11-09T16:32:35;4.70;;;4.30;;
11086;SDS011;5597;47.588;9.642;2022-11-09T16:35:01;4.77;;;4.37;;
11086;SDS011;5597;47.588;9.642;2022-11-09T16:37:28;4.13;;;3.73;;
11086;SDS011;5597;47.588;9.642;2022-11-09T16:39:59;4.20;;;3.80;;
11086;SDS011;5597;47.588;9.642;2022-11-09T16:42:29;4.20;;;3.80;;
11086;SDS011;5597;47.588;9.642;2022-11-09T16:44:57;4.43;;;4.03;;
11086;SDS011;5597;47.588;9.642;2022-11-09T16:47:30;4.53;;;4.13;;
11086;SDS011;5597;47.588;9.642;2022-11-09T16:50:02;4.57;;;4.17;;
11086;SDS011;5597;47.588;9.642;2022-11-09T16:52:27;4.63;;;4.13;;
11086;SDS011;5597;47.588;9.642;2022-11-09T16:54:53;4.63;;;4.23;;
11086;SDS011;5597;47.588;9.642;2022-11-09T16:57:18;4.83;;;4.40;;
11086;SDS011;5597;47.588;9.642;2022-11-09T16:59:44;4.63;;;4.23;;
11086;SDS011;5597;47.588;9.642;2022-11-09T17:02:09;8.10;;;7.10;;
11086;SDS011;5597;47.588;9.642;2022-11-09T17:04:35;20.00;;;14.90;;